sensor_id;sensor_type;location;lat;lon;timestamp;pressure;altitude;pressure_sealevel;temperature;humidity
5952;BME280;3001;42.622;23.194;2022-10-17T00:00:40;92517.03;;;10.35;81.32
5952;BME280;3001;42.622;23.194;2022-10-17T00:03:08;92514.31;;;10.50;80.83
5952;BME280;3001;42.622;23.194;2022-10-17T00:05:40;92514.94;;;10.37;82.30
5952;BME280;3001;42.622;23.194;2022-10-17T00:08:07;92517.81;;;10.31;82.32
5952;BME280;3001;42.622;23.194;2022-10-17T00:10:34;92521.38;;;10.45;81.30
5952;BME280;3001;42.622;23.194;2022-10-17T00:13:01;92522.19;;;10.40;81.12
5952;BME280;3001;42.622;23.194;2022-10-17T00:15:28;92524.78;;;10.40;81.14
5952;BME280;3001;42.622;23.194;2022-10-17T00:17:55;92524.53;;;10.42;81.03
5952;BME280;3001;42.622;23.194;2022-10-17T00:20:22;92520.66;;;10.34;80.24
5952;BME280;3001;42.622;23.194;2022-10-17T00:22:51;92529.28;;;10.25;80.24
5952;BME280;3001;42.622;23.194;2022-10-17T00:25:18;92536.09;;;10.11;79.60
5952;BME280;3001;42.622;23.194;2022-10-17T00:27:45;92534.31;;;10.12;79.22
5952;BME280;3001;42.622;23.194;2022-10-17T00:30:14;92529.09;;;10.07;78.10
5952;BME280;3001;42.622;23.194;2022-10-17T00:32:41;92531.97;;;10.10;78.09
5952;BME280;3001;42.622;23.194;2022-10-17T00:35:08;92542.34;;;10.00;79.05
5952;BME280;3001;42.622;23.194;2022-10-17T00:37:35;92530.94;;;10.06;77.43
5952;BME280;3001;42.622;23.194;2022-10-17T00:40:06;92536.94;;;9.92;77.12
5952;BME280;3001;42.622;23.194;2022-10-17T00:42:33;92543.41;;;10.04;76.37
5952;BME280;3001;42.622;23.194;2022-10-17T00:45:10;92542.88;;;10.07;76.51
5952;BME280;3001;42.622;23.194;2022-10-17T00:47:38;92549.63;;;9.98;75.77
5952;BME280;3001;42.622;23.194;2022-10-17T00:50:06;92543.94;;;9.91;76.24
5952;BME280;3001;42.622;23.194;2022-10-17T00:52:33;92543.94;;;9.91;76.84
5952;BME280;3001;42.622;23.194;2022-10-17T00:55:05;92545.03;;;9.75;77.95
5952;BME280;3001;42.622;23.194;2022-10-17T00:57:33;92540.41;;;9.62;78.78
5952;BME280;3001;42.622;23.194;2022-10-17T01:00:04;92539.38;;;9.53;79.90
5952;BME280;3001;42.622;23.194;2022-10-17T01:02:31;92535.53;;;9.51;80.98
5952;BME280;3001;42.622;23.194;2022-10-17T01:04:58;92540.91;;;9.69;80.99
5952;BME280;3001;42.622;23.194;2022-10-17T01:07:26;92528.94;;;9.73;79.59
5952;BME280;3001;42.622;23.194;2022-10-17T01:09:53;92532.53;;;9.87;79.54
5952;BME280;3001;42.622;23.194;2022-10-17T01:12:24;92528.69;;;9.80;79.47
5952;BME280;3001;42.622;23.194;2022-10-17T01:15:04;92533.88;;;9.80;79.93
5952;BME280;3001;42.622;23.194;2022-10-17T01:17:39;92529.75;;;9.74;80.98
5952;BME280;3001;42.622;23.194;2022-10-17T01:26:39;92529.16;;;9.87;81.78
5952;BME280;3001;42.622;23.194;2022-10-17T01:29:32;92525.25;;;9.94;81.13
5952;BME280;3001;42.622;23.194;2022-10-17T01:32:08;92526.03;;;9.90;81.35
5952;BME280;3001;42.622;23.194;2022-10-17T01:34:43;92531.00;;;9.86;82.00
5952;BME280;3001;42.622;23.194;2022-10-17T01:37:16;92525.28;;;9.79;82.58
5952;BME280;3001;42.622;23.194;2022-10-17T01:39:47;92511.84;;;9.72;82.69
5952;BME280;3001;42.622;23.194;2022-10-17T01:42:18;92527.16;;;9.74;82.24
5952;BME280;3001;42.622;23.194;2022-10-17T01:44:51;92526.63;;;9.72;83.14
5952;BME280;3001;42.622;23.194;2022-10-17T01:47:26;92532.56;;;9.77;82.83
5952;BME280;3001;42.622;23.194;2022-10-17T01:49:57;92532.06;;;9.75;83.36
5952;BME280;3001;42.622;23.194;2022-10-17T01:52:27;92532.03;;;9.85;81.87
5952;BME280;3001;42.622;23.194;2022-10-17T01:55:02;92535.16;;;9.87;81.32
5952;BME280;3001;42.622;23.194;2022-10-17T01:57:35;92534.38;;;9.82;82.00
5952;BME280;3001;42.622;23.194;2022-10-17T02:00:06;92537.00;;;9.77;82.57
5952;BME280;3001;42.622;23.194;2022-10-17T02:02:36;92537.00;;;9.77;82.81
5952;BME280;3001;42.622;23.194;2022-10-17T02:05:04;92536.72;;;9.83;81.91
5952;BME280;3001;42.622;23.194;2022-10-17T02:07:31;92532.28;;;9.94;80.63
5952;BME280;3001;42.622;23.194;2022-10-17T02:09:58;92537.69;;;9.97;80.43
5952;BME280;3001;42.622;23.194;2022-10-17T02:12:34;92538.97;;;10.00;80.44
5952;BME280;3001;42.622;23.194;2022-10-17T02:15:19;92543.94;;;9.91;79.74
5952;BME280;3001;42.622;23.194;2022-10-17T02:17:55;92539.00;;;9.90;80.29
5952;BME280;3001;42.622;23.194;2022-10-17T02:20:24;92549.13;;;9.91;80.07
5952;BME280;3001;42.622;23.194;2022-10-17T02:23:01;92543.66;;;9.98;80.13
5952;BME280;3001;42.622;23.194;2022-10-17T02:25:34;92541.59;;;9.95;79.70
5952;BME280;3001;42.622;23.194;2022-10-17T02:28:11;92545.47;;;9.97;80.04
5952;BME280;3001;42.622;23.194;2022-10-17T02:30:44;92553.28;;;10.02;79.32
5952;BME280;3001;42.622;23.194;2022-10-17T02:33:17;92545.50;;;9.92;79.93
5952;BME280;3001;42.622;23.194;2022-10-17T02:35:54;92539.78;;;10.05;79.60
5952;BME280;3001;42.622;23.194;2022-10-17T02:38:24;92556.41;;;10.04;79.13
5952;BME280;3001;42.622;23.194;2022-10-17T02:40:53;92556.63;;;10.13;79.79
5952;BME280;3001;42.622;23.194;2022-10-17T02:43:21;92557.44;;;10.03;79.94
5952;BME280;3001;42.622;23.194;2022-10-17T02:45:49;92564.69;;;9.96;79.28
5952;BME280;3001;42.622;23.194;2022-10-17T02:48:24;92564.75;;;9.81;79.90
5952;BME280;3001;42.622;23.194;2022-10-17T02:50:59;92561.13;;;9.82;80.01
5952;BME280;3001;42.622;23.194;2022-10-17T02:53:33;92565.78;;;9.80;79.98
5952;BME280;3001;42.622;23.194;2022-10-17T02:56:07;92574.09;;;9.82;78.98
5952;BME280;3001;42.622;23.194;2022-10-17T02:58:35;92564.72;;;9.86;79.31
5952;BME280;3001;42.622;23.194;2022-10-17T03:01:04;92572.00;;;9.79;79.38
5952;BME280;3001;42.622;23.194;2022-10-17T03:03:32;92570.97;;;9.75;79.48
5952;BME280;3001;42.622;23.194;2022-10-17T03:05:59;92567.13;;;9.73;79.62
5952;BME280;3001;42.622;23.194;2022-10-17T03:08:26;92563.25;;;9.60;80.10
5952;BME280;3001;42.622;23.194;2022-10-17T03:10:53;92572.56;;;9.56;80.67
5952;BME280;3001;42.622;23.194;2022-10-17T03:13:19;92566.91;;;9.49;81.26
5952;BME280;3001;42.622;23.194;2022-10-17T03:15:46;92568.47;;;9.40;81.09
5952;BME280;3001;42.622;23.194;2022-10-17T03:18:13;92569.47;;;9.54;81.19
5952;BME280;3001;42.622;23.194;2022-10-17T03:20:41;92570.53;;;9.43;81.18
5952;BME280;3001;42.622;23.194;2022-10-17T03:23:08;92576.22;;;9.50;81.71
5952;BME280;3001;42.622;23.194;2022-10-17T03:25:35;92572.34;;;9.53;80.63
5952;BME280;3001;42.622;23.194;2022-10-17T03:28:02;92569.72;;;9.73;80.78
5952;BME280;3001;42.622;23.194;2022-10-17T03:30:29;92575.19;;;9.61;80.75
5952;BME280;3001;42.622;23.194;2022-10-17T03:32:56;92574.16;;;9.52;80.68
5952;BME280;3001;42.622;23.194;2022-10-17T03:35:23;92579.84;;;9.54;80.37
5952;BME280;3001;42.622;23.194;2022-10-17T03:37:53;92578.31;;;9.48;80.68
5952;BME280;3001;42.622;23.194;2022-10-17T03:40:20;92571.84;;;9.36;80.95
5952;BME280;3001;42.622;23.194;2022-10-17T03:42:47;92574.16;;;9.37;81.31
5952;BME280;3001;42.622;23.194;2022-10-17T03:45:14;92572.38;;;9.18;82.30
5952;BME280;3001;42.622;23.194;2022-10-17T03:47:41;92569.50;;;9.39;82.52
5952;BME280;3001;42.622;23.194;2022-10-17T03:50:08;92574.44;;;9.41;82.30
5952;BME280;3001;42.622;23.194;2022-10-17T03:52:35;92576.25;;;9.35;82.35
5952;BME280;3001;42.622;23.194;2022-10-17T03:55:03;92579.38;;;9.42;81.89
5952;BME280;3001;42.622;23.194;2022-10-17T03:57:30;92576.25;;;9.25;82.59
5952;BME280;3001;42.622;23.194;2022-10-17T03:59:57;92570.56;;;9.18;83.17
5952;BME280;3001;42.622;23.194;2022-10-17T04:02:24;92567.97;;;9.08;83.20
5952;BME280;3001;42.622;23.194;2022-10-17T04:04:50;92580.66;;;9.05;84.29
5952;BME280;3001;42.622;23.194;2022-10-17T04:07:17;92573.41;;;9.07;84.08
5952;BME280;3001;42.622;23.194;2022-10-17T04:09:44;92575.22;;;8.96;84.32
5952;BME280;3001;42.622;23.194;2022-10-17T04:12:12;92577.06;;;8.96;83.93
5952;BME280;3001;42.622;23.194;2022-10-17T04:14:39;92574.94;;;8.88;84.79
5952;BME280;3001;42.622;23.194;2022-10-17T04:17:05;92579.88;;;8.89;84.58
5952;BME280;3001;42.622;23.194;2022-10-17T04:19:32;92581.97;;;8.82;85.62
5952;BME280;3001;42.622;23.194;2022-10-17T04:21:59;92582.50;;;8.79;85.94
5952;BME280;3001;42.622;23.194;2022-10-17T04:24:27;92583.03;;;9.01;85.45
5952;BME280;3001;42.622;23.194;2022-10-17T04:26:54;92577.84;;;9.01;84.70
5952;BME280;3001;42.622;23.194;2022-10-17T04:29:23;92580.69;;;9.15;84.77
5952;BME280;3001;42.622;23.194;2022-10-17T04:31:50;92579.13;;;9.14;84.85
5952;BME280;3001;42.622;23.194;2022-10-17T04:34:17;92589.22;;;9.10;85.35
5952;BME280;3001;42.622;23.194;2022-10-17T04:36:43;92599.06;;;8.98;85.85
5952;BME280;3001;42.622;23.194;2022-10-17T04:39:11;92594.41;;;9.00;85.65
5952;BME280;3001;42.622;23.194;2022-10-17T04:41:38;92594.91;;;8.97;85.48
5952;BME280;3001;42.622;23.194;2022-10-17T04:44:05;92596.47;;;8.93;85.87
5952;BME280;3001;42.622;23.194;2022-10-17T04:46:34;92595.19;;;9.16;85.07
5952;BME280;3001;42.622;23.194;2022-10-17T04:49:01;92603.47;;;8.98;85.32
5952;BME280;3001;42.622;23.194;2022-10-17T04:51:28;92597.75;;;8.86;86.15
5952;BME280;3001;42.622;23.194;2022-10-17T04:53:55;92590.00;;;9.01;85.99
5952;BME280;3001;42.622;23.194;2022-10-17T04:56:23;92602.72;;;9.07;84.66
5952;BME280;3001;42.622;23.194;2022-10-17T04:58:50;92599.09;;;9.03;84.94
5952;BME280;3001;42.622;23.194;2022-10-17T05:01:19;92599.59;;;9.00;84.90
5952;BME280;3001;42.622;23.194;2022-10-17T05:03:48;92606.84;;;9.03;84.61
5952;BME280;3001;42.622;23.194;2022-10-17T05:06:16;92605.03;;;9.04;84.70
5952;BME280;3001;42.622;23.194;2022-10-17T05:08:44;92597.78;;;9.11;84.64
5952;BME280;3001;42.622;23.194;2022-10-17T05:11:16;92610.22;;;9.14;84.64
5952;BME280;3001;42.622;23.194;2022-10-17T05:13:43;92612.56;;;9.05;84.82
5952;BME280;3001;42.622;23.194;2022-10-17T05:16:10;92610.75;;;9.16;84.61
5952;BME280;3001;42.622;23.194;2022-10-17T05:18:37;92611.00;;;9.14;84.79
5952;BME280;3001;42.622;23.194;2022-10-17T05:21:05;92606.59;;;9.10;84.80
5952;BME280;3001;42.622;23.194;2022-10-17T05:23:32;92615.16;;;9.10;85.33
5952;BME280;3001;42.622;23.194;2022-10-17T05:25:58;92619.28;;;9.11;85.47
5952;BME280;3001;42.622;23.194;2022-10-17T05:28:26;92619.28;;;9.06;85.75
5952;BME280;3001;42.622;23.194;2022-10-17T05:30:52;92611.00;;;9.09;86.10
5952;BME280;3001;42.622;23.194;2022-10-17T05:33:19;92628.88;;;9.26;85.70
5952;BME280;3001;42.622;23.194;2022-10-17T05:35:46;92627.59;;;9.48;84.72
5952;BME280;3001;42.622;23.194;2022-10-17T05:38:14;92628.38;;;9.44;85.54
5952;BME280;3001;42.622;23.194;2022-10-17T05:40:41;92635.38;;;9.43;85.75
5952;BME280;3001;42.622;23.194;2022-10-17T05:43:07;92630.19;;;9.28;85.85
5952;BME280;3001;42.622;23.194;2022-10-17T05:45:35;92635.38;;;9.28;86.31
5952;BME280;3001;42.622;23.194;2022-10-17T05:48:02;92635.38;;;9.13;87.39
5952;BME280;3001;42.622;23.194;2022-10-17T05:50:29;92642.91;;;9.35;86.78
5952;BME280;3001;42.622;23.194;2022-10-17T05:52:56;92645.50;;;9.30;86.91
5952;BME280;3001;42.622;23.194;2022-10-17T05:55:24;92652.47;;;9.34;86.78
5952;BME280;3001;42.622;23.194;2022-10-17T05:57:51;92655.59;;;9.51;85.63
5952;BME280;3001;42.622;23.194;2022-10-17T06:00:18;92663.09;;;9.48;86.01
5952;BME280;3001;42.622;23.194;2022-10-17T06:02:46;92653.53;;;9.48;85.97
5952;BME280;3001;42.622;23.194;2022-10-17T06:05:13;92654.56;;;9.47;85.98
5952;BME280;3001;42.622;23.194;2022-10-17T06:07:40;92655.06;;;9.39;86.79
5952;BME280;3001;42.622;23.194;2022-10-17T06:10:08;92651.72;;;9.39;87.26
5952;BME280;3001;42.622;23.194;2022-10-17T06:12:38;92660.50;;;9.48;87.45
5952;BME280;3001;42.622;23.194;2022-10-17T06:15:05;92660.25;;;9.54;87.90
5952;BME280;3001;42.622;23.194;2022-10-17T06:17:32;92663.38;;;9.61;88.31
5952;BME280;3001;42.622;23.194;2022-10-17T06:19:59;92641.06;;;9.55;87.80
5952;BME280;3001;42.622;23.194;2022-10-17T06:22:26;92654.81;;;9.66;87.72
5952;BME280;3001;42.622;23.194;2022-10-17T06:24:53;92668.03;;;9.74;87.72
5952;BME280;3001;42.622;23.194;2022-10-17T06:27:20;92671.38;;;9.95;87.79
5952;BME280;3001;42.622;23.194;2022-10-17T06:29:48;92673.72;;;10.06;87.47
5952;BME280;3001;42.622;23.194;2022-10-17T06:32:15;92677.38;;;10.05;87.66
5952;BME280;3001;42.622;23.194;2022-10-17T06:34:42;92674.78;;;10.05;88.46
5952;BME280;3001;42.622;23.194;2022-10-17T06:37:09;92670.03;;;10.27;87.63
5952;BME280;3001;42.622;23.194;2022-10-17T06:39:36;92672.34;;;10.33;87.54
5952;BME280;3001;42.622;23.194;2022-10-17T06:42:03;92673.13;;;10.34;87.05
5952;BME280;3001;42.622;23.194;2022-10-17T06:44:29;92672.56;;;10.47;87.36
5952;BME280;3001;42.622;23.194;2022-10-17T06:46:58;92681.94;;;10.43;86.73
5952;BME280;3001;42.622;23.194;2022-10-17T06:49:25;92686.81;;;10.49;87.04
5952;BME280;3001;42.622;23.194;2022-10-17T06:51:52;92682.09;;;10.66;86.41
5952;BME280;3001;42.622;23.194;2022-10-17T06:54:19;92692.19;;;10.73;86.84
5952;BME280;3001;42.622;23.194;2022-10-17T06:56:45;92689.63;;;10.68;86.61
5952;BME280;3001;42.622;23.194;2022-10-17T06:59:12;92695.03;;;10.81;85.77
5952;BME280;3001;42.622;23.194;2022-10-17T07:01:40;92697.38;;;10.78;85.51
5952;BME280;3001;42.622;23.194;2022-10-17T07:04:08;92696.50;;;10.92;85.31
5952;BME280;3001;42.622;23.194;2022-10-17T07:06:35;92700.63;;;11.03;84.80
5952;BME280;3001;42.622;23.194;2022-10-17T07:09:01;92703.22;;;11.03;85.19
5952;BME280;3001;42.622;23.194;2022-10-17T07:11:31;92706.31;;;11.10;85.14
5952;BME280;3001;42.622;23.194;2022-10-17T07:13:59;92698.19;;;11.22;84.66
5952;BME280;3001;42.622;23.194;2022-10-17T07:16:26;92687.31;;;11.15;83.60
5952;BME280;3001;42.622;23.194;2022-10-17T07:18:53;92700.97;;;11.35;83.23
5952;BME280;3001;42.622;23.194;2022-10-17T07:21:21;92691.22;;;11.51;83.87
5952;BME280;3001;42.622;23.194;2022-10-17T07:23:48;92693.81;;;11.56;83.00
5952;BME280;3001;42.622;23.194;2022-10-17T07:26:16;92703.63;;;11.69;82.32
5952;BME280;3001;42.622;23.194;2022-10-17T07:28:45;92704.59;;;11.78;81.98
5952;BME280;3001;42.622;23.194;2022-10-17T07:31:17;92713.13;;;11.83;81.21
5952;BME280;3001;42.622;23.194;2022-10-17T07:33:44;92703.13;;;11.67;81.68
5952;BME280;3001;42.622;23.194;2022-10-17T07:36:12;92709.25;;;11.81;80.81
5952;BME280;3001;42.622;23.194;2022-10-17T07:38:40;92703.22;;;11.85;80.64
5952;BME280;3001;42.622;23.194;2022-10-17T07:41:08;92718.50;;;11.97;79.99
5952;BME280;3001;42.622;23.194;2022-10-17T07:43:36;92710.06;;;12.04;81.24
5952;BME280;3001;42.622;23.194;2022-10-17T07:46:04;92711.31;;;12.12;80.46
5952;BME280;3001;42.622;23.194;2022-10-17T07:48:31;92717.06;;;12.09;80.04
5952;BME280;3001;42.622;23.194;2022-10-17T07:51:01;92717.53;;;12.16;80.35
5952;BME280;3001;42.622;23.194;2022-10-17T07:53:28;92717.38;;;12.31;80.64
5952;BME280;3001;42.622;23.194;2022-10-17T07:55:56;92706.94;;;12.36;79.47
5952;BME280;3001;42.622;23.194;2022-10-17T07:58:23;92708.41;;;12.42;80.24
5952;BME280;3001;42.622;23.194;2022-10-17T08:00:50;92716.75;;;12.44;80.43
5952;BME280;3001;42.622;23.194;2022-10-17T08:03:16;92718.03;;;12.46;81.61
5952;BME280;3001;42.622;23.194;2022-10-17T08:05:43;92725.63;;;12.43;81.32
5952;BME280;3001;42.622;23.194;2022-10-17T08:08:10;92716.56;;;12.35;81.19
5952;BME280;3001;42.622;23.194;2022-10-17T08:10:37;92713.97;;;12.59;79.46
5952;BME280;3001;42.622;23.194;2022-10-17T08:13:05;92717.28;;;12.88;78.98
5952;BME280;3001;42.622;23.194;2022-10-17T08:15:31;92699.47;;;12.95;79.38
5952;BME280;3001;42.622;23.194;2022-10-17T08:17:58;92706.22;;;13.01;79.66
5952;BME280;3001;42.622;23.194;2022-10-17T08:20:25;92709.16;;;13.13;79.37
5952;BME280;3001;42.622;23.194;2022-10-17T08:22:52;92710.72;;;13.14;80.05
5952;BME280;3001;42.622;23.194;2022-10-17T08:25:19;92716.31;;;13.26;80.45
5952;BME280;3001;42.622;23.194;2022-10-17T08:27:46;92712.63;;;13.45;79.43
5952;BME280;3001;42.622;23.194;2022-10-17T08:30:15;92696.72;;;13.47;79.08
5952;BME280;3001;42.622;23.194;2022-10-17T08:32:42;92700.69;;;13.76;77.99
5952;BME280;3001;42.622;23.194;2022-10-17T08:35:09;92702.53;;;13.76;78.33
5952;BME280;3001;42.622;23.194;2022-10-17T08:37:36;92703.28;;;13.94;77.47
5952;BME280;3001;42.622;23.194;2022-10-17T08:40:03;92700.31;;;14.14;76.63
5952;BME280;3001;42.622;23.194;2022-10-17T08:42:55;92690.03;;;14.36;77.50
5952;BME280;3001;42.622;23.194;2022-10-17T08:45:29;92696.75;;;14.56;74.69
5952;BME280;3001;42.622;23.194;2022-10-17T08:47:59;92704.13;;;14.67;74.22
5952;BME280;3001;42.622;23.194;2022-10-17T08:50:31;92697.72;;;14.87;74.33
5952;BME280;3001;42.622;23.194;2022-10-17T08:53:05;92708.09;;;14.92;73.23
5952;BME280;3001;42.622;23.194;2022-10-17T08:55:36;92711.16;;;15.21;72.20
5952;BME280;3001;42.622;23.194;2022-10-17T08:58:11;92706.47;;;15.45;70.11
5952;BME280;3001;42.622;23.194;2022-10-17T09:00:41;92706.69;;;15.21;72.49
5952;BME280;3001;42.622;23.194;2022-10-17T09:03:20;92713.91;;;15.29;73.11
5952;BME280;3001;42.622;23.194;2022-10-17T09:06:07;92713.09;;;15.42;73.35
5952;BME280;3001;42.622;23.194;2022-10-17T09:08:41;92721.41;;;15.58;70.96
5952;BME280;3001;42.622;23.194;2022-10-17T09:11:26;92725.56;;;15.59;69.01
5952;BME280;3001;42.622;23.194;2022-10-17T09:14:07;92730.72;;;15.85;68.05
5952;BME280;3001;42.622;23.194;2022-10-17T09:16:51;92723.09;;;15.97;67.21
5952;BME280;3001;42.622;23.194;2022-10-17T09:19:25;92744.41;;;16.26;67.11
5952;BME280;3001;42.622;23.194;2022-10-17T09:21:58;92741.47;;;16.41;66.17
5952;BME280;3001;42.622;23.194;2022-10-17T09:24:38;92741.38;;;16.55;66.44
5952;BME280;3001;42.622;23.194;2022-10-17T09:27:14;92735.16;;;16.73;64.50
5952;BME280;3001;42.622;23.194;2022-10-17T09:29:45;92744.16;;;16.80;63.54
5952;BME280;3001;42.622;23.194;2022-10-17T09:32:18;92736.63;;;16.96;62.95
5952;BME280;3001;42.622;23.194;2022-10-17T09:34:46;92739.00;;;17.14;63.93
5952;BME280;3001;42.622;23.194;2022-10-17T09:37:15;92733.13;;;17.48;61.03
5952;BME280;3001;42.622;23.194;2022-10-17T09:39:43;92742.66;;;17.43;60.31
5952;BME280;3001;42.622;23.194;2022-10-17T09:42:13;92740.22;;;17.55;59.77
5952;BME280;3001;42.622;23.194;2022-10-17T09:44:47;92740.41;;;17.59;58.24
5952;BME280;3001;42.622;23.194;2022-10-17T09:47:23;92736.38;;;17.70;58.83
5952;BME280;3001;42.622;23.194;2022-10-17T09:49:51;92724.47;;;17.72;58.08
5952;BME280;3001;42.622;23.194;2022-10-17T09:52:20;92749.53;;;17.95;57.25
5952;BME280;3001;42.622;23.194;2022-10-17T09:54:49;92746.28;;;18.15;56.81
5952;BME280;3001;42.622;23.194;2022-10-17T09:57:18;92747.09;;;18.07;57.99
5952;BME280;3001;42.622;23.194;2022-10-17T09:59:46;92740.88;;;18.20;57.35
5952;BME280;3001;42.622;23.194;2022-10-17T10:02:17;92742.88;;;18.06;56.20
5952;BME280;3001;42.622;23.194;2022-10-17T10:04:56;92739.34;;;18.28;55.24
5952;BME280;3001;42.622;23.194;2022-10-17T10:07:24;92737.00;;;18.43;55.66
5952;BME280;3001;42.622;23.194;2022-10-17T10:09:52;92733.88;;;18.58;56.24
5952;BME280;3001;42.622;23.194;2022-10-17T10:12:21;92727.97;;;18.70;54.30
5952;BME280;3001;42.622;23.194;2022-10-17T10:14:48;92736.25;;;18.89;55.64
5952;BME280;3001;42.622;23.194;2022-10-17T10:17:33;92727.44;;;18.93;51.31
5952;BME280;3001;42.622;23.194;2022-10-17T10:20:26;92736.84;;;19.03;52.91
5952;BME280;3001;42.622;23.194;2022-10-17T10:23:14;92734.91;;;19.20;51.59
5952;BME280;3001;42.622;23.194;2022-10-17T10:25:55;92733.84;;;19.13;49.88
5952;BME280;3001;42.622;23.194;2022-10-17T10:28:29;92731.94;;;19.30;49.92
5952;BME280;3001;42.622;23.194;2022-10-17T10:30:57;92726.59;;;19.38;49.31
5952;BME280;3001;42.622;23.194;2022-10-17T10:33:27;92729.16;;;19.55;48.83
5952;BME280;3001;42.622;23.194;2022-10-17T10:35:57;92721.53;;;19.62;46.89
5952;BME280;3001;42.622;23.194;2022-10-17T10:38:26;92718.25;;;19.65;46.77
5952;BME280;3001;42.622;23.194;2022-10-17T10:40:55;92722.38;;;19.75;45.88
5952;BME280;3001;42.622;23.194;2022-10-17T10:43:26;92722.91;;;19.80;47.30
5952;BME280;3001;42.622;23.194;2022-10-17T10:45:57;92716.19;;;19.91;46.73
5952;BME280;3001;42.622;23.194;2022-10-17T10:48:26;92713.47;;;20.00;47.93
5952;BME280;3001;42.622;23.194;2022-10-17T10:50:59;92715.03;;;20.01;46.10
5952;BME280;3001;42.622;23.194;2022-10-17T10:53:32;92716.84;;;20.09;45.16
5952;BME280;3001;42.622;23.194;2022-10-17T10:56:03;92706.22;;;20.17;47.43
5952;BME280;3001;42.622;23.194;2022-10-17T10:58:40;92712.84;;;20.23;45.53
5952;BME280;3001;42.622;23.194;2022-10-17T11:01:16;92708.69;;;20.34;44.65
5952;BME280;3001;42.622;23.194;2022-10-17T11:03:53;92701.50;;;20.55;43.40
5952;BME280;3001;42.622;23.194;2022-10-17T11:06:27;92706.88;;;20.47;43.59
5952;BME280;3001;42.622;23.194;2022-10-17T11:09:05;92704.28;;;20.59;43.57
5952;BME280;3001;42.622;23.194;2022-10-17T11:11:40;92697.91;;;20.72;42.31
5952;BME280;3001;42.622;23.194;2022-10-17T11:14:15;92702.75;;;20.70;43.53
5952;BME280;3001;42.622;23.194;2022-10-17T11:16:47;92711.03;;;20.80;41.32
5952;BME280;3001;42.622;23.194;2022-10-17T11:19:19;92698.91;;;20.79;44.63
5952;BME280;3001;42.622;23.194;2022-10-17T11:21:59;92702.72;;;21.02;43.25
5952;BME280;3001;42.622;23.194;2022-10-17T11:24:33;92700.41;;;21.01;42.54
5952;BME280;3001;42.622;23.194;2022-10-17T11:27:04;92692.59;;;21.04;41.92
5952;BME280;3001;42.622;23.194;2022-10-17T11:29:33;92679.38;;;20.92;42.07
5952;BME280;3001;42.622;23.194;2022-10-17T11:32:04;92700.31;;;21.09;42.26
5952;BME280;3001;42.622;23.194;2022-10-17T11:34:35;92700.09;;;21.26;41.41
5952;BME280;3001;42.622;23.194;2022-10-17T11:37:12;92688.84;;;21.29;42.19
5952;BME280;3001;42.622;23.194;2022-10-17T11:39:42;92698.31;;;21.18;41.60
5952;BME280;3001;42.622;23.194;2022-10-17T11:42:16;92695.78;;;21.21;42.25
5952;BME280;3001;42.622;23.194;2022-10-17T11:44:44;92695.69;;;21.18;41.85
5952;BME280;3001;42.622;23.194;2022-10-17T11:47:26;92694.03;;;21.25;41.13
5952;BME280;3001;42.622;23.194;2022-10-17T11:49:57;92693.25;;;21.37;40.36
5952;BME280;3001;42.622;23.194;2022-10-17T11:52:34;92687.97;;;21.49;40.99
5952;BME280;3001;42.622;23.194;2022-10-17T11:55:09;92681.69;;;21.29;41.71
5952;BME280;3001;42.622;23.194;2022-10-17T11:57:49;92686.31;;;21.44;41.09
5952;BME280;3001;42.622;23.194;2022-10-17T12:00:24;92671.19;;;21.57;42.11
5952;BME280;3001;42.622;23.194;2022-10-17T12:03:04;92688.94;;;21.80;40.66
5952;BME280;3001;42.622;23.194;2022-10-17T12:05:39;92688.00;;;21.88;39.11
5952;BME280;3001;42.622;23.194;2022-10-17T12:08:16;92677.72;;;21.99;39.00
5952;BME280;3001;42.622;23.194;2022-10-17T12:10:52;92681.78;;;22.08;38.55
5952;BME280;3001;42.622;23.194;2022-10-17T12:13:50;92668.66;;;22.12;38.43
5952;BME280;3001;42.622;23.194;2022-10-17T12:16:38;92677.00;;;21.86;37.91
5952;BME280;3001;42.622;23.194;2022-10-17T12:19:32;92681.19;;;21.87;38.76
5952;BME280;3001;42.622;23.194;2022-10-17T12:22:18;92679.75;;;21.90;37.43
5952;BME280;3001;42.622;23.194;2022-10-17T12:24:54;92681.06;;;21.96;40.55
5952;BME280;3001;42.622;23.194;2022-10-17T12:30:23;92685.53;;;22.07;37.69
5952;BME280;3001;42.622;23.194;2022-10-17T12:33:13;92678.84;;;21.98;37.64
5952;BME280;3001;42.622;23.194;2022-10-17T12:35:46;92682.16;;;21.95;38.88
5952;BME280;3001;42.622;23.194;2022-10-17T12:38:22;92686.41;;;22.11;37.33
5952;BME280;3001;42.622;23.194;2022-10-17T12:40:53;92680.88;;;22.16;37.52
5952;BME280;3001;42.622;23.194;2022-10-17T12:43:47;92679.50;;;22.07;37.69
5952;BME280;3001;42.622;23.194;2022-10-17T12:46:42;92672.56;;;22.30;38.33
5952;BME280;3001;42.622;23.194;2022-10-17T12:49:20;92667.25;;;22.30;37.79
5952;BME280;3001;42.622;23.194;2022-10-17T12:52:09;92680.72;;;22.25;35.38
5952;BME280;3001;42.622;23.194;2022-10-17T12:54:41;92683.38;;;22.25;37.82
5952;BME280;3001;42.622;23.194;2022-10-17T12:57:19;92681.03;;;22.08;37.63
5952;BME280;3001;42.622;23.194;2022-10-17T12:59:47;92678.69;;;22.06;35.23
5952;BME280;3001;42.622;23.194;2022-10-17T13:02:18;92679.59;;;22.38;37.59
5952;BME280;3001;42.622;23.194;2022-10-17T13:04:47;92671.19;;;22.48;38.79
5952;BME280;3001;42.622;23.194;2022-10-17T13:07:18;92671.09;;;22.32;37.93
5952;BME280;3001;42.622;23.194;2022-10-17T13:09:45;92661.44;;;22.24;37.20
5952;BME280;3001;42.622;23.194;2022-10-17T13:12:24;92672.97;;;22.32;36.60
5952;BME280;3001;42.622;23.194;2022-10-17T13:14:53;92665.38;;;22.30;37.37
5952;BME280;3001;42.622;23.194;2022-10-17T13:17:23;92665.34;;;22.42;37.95
5952;BME280;3001;42.622;23.194;2022-10-17T13:19:50;92662.47;;;22.35;37.71
5952;BME280;3001;42.622;23.194;2022-10-17T13:22:18;92665.09;;;22.47;37.75
5952;BME280;3001;42.622;23.194;2022-10-17T13:24:45;92665.69;;;22.41;37.15
5952;BME280;3001;42.622;23.194;2022-10-17T13:27:25;92668.44;;;22.44;37.60
5952;BME280;3001;42.622;23.194;2022-10-17T13:29:53;92671.59;;;22.50;38.26
5952;BME280;3001;42.622;23.194;2022-10-17T13:32:22;92669.19;;;22.45;37.50
5952;BME280;3001;42.622;23.194;2022-10-17T13:35:06;92659.19;;;22.38;37.63
5952;BME280;3001;42.622;23.194;2022-10-17T13:37:33;92671.41;;;22.43;38.71
5952;BME280;3001;42.622;23.194;2022-10-17T13:40:01;92665.31;;;22.15;35.25
5952;BME280;3001;42.622;23.194;2022-10-17T13:42:36;92673.16;;;22.11;36.59